Greeley, CO

1:36 PM MST on March 04, 2015 (GMT -0700)
Ross Hall - UNC | Change Station
CLOSE
Current Station
Personal Weather Station
Location: Greeley, CO
Elevation: 4790 ft
Nearby Weather Stations

Elev 4790 ft 40.40 °N, 104.70 °W | Updated 48 seconds ago

Clear
Clear
22.0 °F
Feels Like 17 °F
N
4.0
Wind Variable Wind from SW
Gusts 6.0 mph

Today
High -- | Low -- °F
--% Chance of Precip.
Yesterday
High -- | Low -- °F
Precip. -- in
6:28 AM 5:53 PM
Waxing Gibbous, 99% visible
Pressure 30.15 in
Visibility 10.0 miles
Clouds Few 5000 ft
Windchill 17 °F
Dew Point 9 °F
Humidity 56%
Rainfall 0.00 in
Snow Depth Not available.
UV 5 out of 12
Pollen .80 out of 12
Air Quality Not available.
Flu Activity Not available.
METAR KGXY 042015Z AUTO 16004KT 10SM FEW050 M06/M16 A3015 RMK AO1

More Conditions Fewer Conditions

Pressure 30.15 in
Visibility 10.0 miles
Clouds Few 5000 ft
Windchill 17 °F
Dew Point 9 °F
Humidity 56%
Rainfall 0.00 in
Snow Depth Not available.
UV 5 out of 12
Pollen .80 out of 12
Air Quality Not available.
Flu Activity Not available.
METAR KGXY 042015Z AUTO 16004KT 10SM FEW050 M06/M16 A3015 RMK AO1

More Conditions Fewer Conditions

10-Day Weather Forecast

Almanac

Astronomy

Mar. 04, 2015 Rise Set
Actual Time
Civil Twilight
Nautical Twilight
Astronomical Twilight
Moon
Length of Visible Light
Length of Day
Tomorrow will be .
, % of the Moon is Illuminated

Today's Extremes

State Highs State Lows

Community

WunderPhotos

Upload Photos

1,802,575 photos uploaded!

WunderBlogs® & News

Nearby

Air Quality

  Air Quality AQ Index Pollutant
Not available.

Snow Depth

Station Depth Elevation

Earthquake Activity

City Distance Mag. Time & Date
Minimum magnitude displayed is 2.5.

Coastal Water Temperatures

Place Temperature

Nearby Weather Stations